sensor_id;sensor_type;location;lat;lon;timestamp;temperature;humidity
32334;DHT22;18810;53.040;8.850;2023-04-06T00:01:41;5.00;99.90
32334;DHT22;18810;53.040;8.850;2023-04-06T00:04:06;5.00;99.90
32334;DHT22;18810;53.040;8.850;2023-04-06T00:06:33;5.00;99.90
32334;DHT22;18810;53.040;8.850;2023-04-06T00:09:00;4.90;99.90
32334;DHT22;18810;53.040;8.850;2023-04-06T00:11:26;4.90;99.90
32334;DHT22;18810;53.040;8.850;2023-04-06T00:13:52;4.90;99.90
32334;DHT22;18810;53.040;8.850;2023-04-06T00:16:19;4.70;99.90
32334;DHT22;18810;53.040;8.850;2023-04-06T00:18:44;4.70;99.90
32334;DHT22;18810;53.040;8.850;2023-04-06T00:21:14;4.70;99.90
32334;DHT22;18810;53.040;8.850;2023-04-06T00:23:41;4.60;99.90
32334;DHT22;18810;53.040;8.850;2023-04-06T00:26:07;4.60;99.90
32334;DHT22;18810;53.040;8.850;2023-04-06T00:28:33;4.50;99.90
32334;DHT22;18810;53.040;8.850;2023-04-06T00:30:59;4.50;99.90
32334;DHT22;18810;53.040;8.850;2023-04-06T00:33:25;4.40;99.90
32334;DHT22;18810;53.040;8.850;2023-04-06T00:35:51;4.40;99.90
32334;DHT22;18810;53.040;8.850;2023-04-06T00:38:17;4.40;99.90
32334;DHT22;18810;53.040;8.850;2023-04-06T00:40:43;4.40;99.90
32334;DHT22;18810;53.040;8.850;2023-04-06T00:43:12;4.30;99.90
32334;DHT22;18810;53.040;8.850;2023-04-06T00:45:39;4.30;99.90
32334;DHT22;18810;53.040;8.850;2023-04-06T00:48:06;4.30;99.90
32334;DHT22;18810;53.040;8.850;2023-04-06T00:50:32;4.10;99.90
32334;DHT22;18810;53.040;8.850;2023-04-06T00:52:59;4.10;99.90
32334;DHT22;18810;53.040;8.850;2023-04-06T00:55:26;4.10;99.90
32334;DHT22;18810;53.040;8.850;2023-04-06T00:57:52;4.00;99.90
32334;DHT22;18810;53.040;8.850;2023-04-06T01:00:18;4.00;99.90
32334;DHT22;18810;53.040;8.850;2023-04-06T01:02:44;4.00;99.90
32334;DHT22;18810;53.040;8.850;2023-04-06T01:05:10;3.90;99.90
32334;DHT22;18810;53.040;8.850;2023-04-06T01:07:36;4.00;99.90
32334;DHT22;18810;53.040;8.850;2023-04-06T01:10:03;3.90;99.90
32334;DHT22;18810;53.040;8.850;2023-04-06T01:12:29;3.90;99.90
32334;DHT22;18810;53.040;8.850;2023-04-06T01:14:58;3.90;99.90
32334;DHT22;18810;53.040;8.850;2023-04-06T01:17:24;3.50;99.90
32334;DHT22;18810;53.040;8.850;2023-04-06T01:19:50;3.80;99.90
32334;DHT22;18810;53.040;8.850;2023-04-06T01:22:19;3.80;99.90
32334;DHT22;18810;53.040;8.850;2023-04-06T01:24:45;3.70;99.90
32334;DHT22;18810;53.040;8.850;2023-04-06T01:27:11;3.80;99.90
32334;DHT22;18810;53.040;8.850;2023-04-06T01:29:37;3.80;99.90
32334;DHT22;18810;53.040;8.850;2023-04-06T01:32:03;3.80;99.90
32334;DHT22;18810;53.040;8.850;2023-04-06T01:34:29;3.80;99.90
32334;DHT22;18810;53.040;8.850;2023-04-06T01:36:54;3.80;99.90
32334;DHT22;18810;53.040;8.850;2023-04-06T01:39:20;3.80;99.90
32334;DHT22;18810;53.040;8.850;2023-04-06T01:41:46;3.80;99.90
32334;DHT22;18810;53.040;8.850;2023-04-06T01:44:17;3.80;99.90
32334;DHT22;18810;53.040;8.850;2023-04-06T01:46:43;3.70;99.90
32334;DHT22;18810;53.040;8.850;2023-04-06T01:49:09;3.70;99.90
32334;DHT22;18810;53.040;8.850;2023-04-06T01:51:35;3.60;99.90
32334;DHT22;18810;53.040;8.850;2023-04-06T01:54:01;3.50;99.90
32334;DHT22;18810;53.040;8.850;2023-04-06T01:56:28;3.50;99.90
32334;DHT22;18810;53.040;8.850;2023-04-06T01:58:54;3.50;99.90
32334;DHT22;18810;53.040;8.850;2023-04-06T02:01:21;3.50;99.90
32334;DHT22;18810;53.040;8.850;2023-04-06T02:03:46;3.50;99.90
32334;DHT22;18810;53.040;8.850;2023-04-06T02:06:12;3.50;99.90
32334;DHT22;18810;53.040;8.850;2023-04-06T02:08:38;3.50;99.90
32334;DHT22;18810;53.040;8.850;2023-04-06T02:11:04;3.50;99.90
32334;DHT22;18810;53.040;8.850;2023-04-06T02:13:30;3.50;99.90
32334;DHT22;18810;53.040;8.850;2023-04-06T02:15:55;3.50;99.90
32334;DHT22;18810;53.040;8.850;2023-04-06T02:18:22;3.40;99.90
32334;DHT22;18810;53.040;8.850;2023-04-06T02:20:48;3.40;99.90
32334;DHT22;18810;53.040;8.850;2023-04-06T02:23:14;3.30;99.90
32334;DHT22;18810;53.040;8.850;2023-04-06T02:25:40;3.30;99.90
32334;DHT22;18810;53.040;8.850;2023-04-06T02:28:06;3.40;99.90
32334;DHT22;18810;53.040;8.850;2023-04-06T02:30:32;3.20;99.90
32334;DHT22;18810;53.040;8.850;2023-04-06T02:33:00;3.20;99.90
32334;DHT22;18810;53.040;8.850;2023-04-06T02:35:27;3.10;99.90
32334;DHT22;18810;53.040;8.850;2023-04-06T02:37:53;3.00;99.90
32334;DHT22;18810;53.040;8.850;2023-04-06T02:40:19;3.10;99.90
32334;DHT22;18810;53.040;8.850;2023-04-06T02:42:45;3.10;99.90
32334;DHT22;18810;53.040;8.850;2023-04-06T02:45:10;3.10;99.90
32334;DHT22;18810;53.040;8.850;2023-04-06T02:47:36;3.00;99.90
32334;DHT22;18810;53.040;8.850;2023-04-06T02:50:02;2.90;99.90
32334;DHT22;18810;53.040;8.850;2023-04-06T02:52:28;3.00;99.90
32334;DHT22;18810;53.040;8.850;2023-04-06T02:54:54;3.00;99.90
32334;DHT22;18810;53.040;8.850;2023-04-06T02:57:19;3.00;99.90
32334;DHT22;18810;53.040;8.850;2023-04-06T02:59:45;2.90;99.90
32334;DHT22;18810;53.040;8.850;2023-04-06T03:02:11;2.90;99.90
32334;DHT22;18810;53.040;8.850;2023-04-06T03:04:37;2.90;99.90
32334;DHT22;18810;53.040;8.850;2023-04-06T03:07:02;2.80;99.90
32334;DHT22;18810;53.040;8.850;2023-04-06T03:09:28;2.90;99.90
32334;DHT22;18810;53.040;8.850;2023-04-06T03:11:54;2.80;99.90
32334;DHT22;18810;53.040;8.850;2023-04-06T03:14:20;2.70;99.90
32334;DHT22;18810;53.040;8.850;2023-04-06T03:16:47;2.70;99.90
32334;DHT22;18810;53.040;8.850;2023-04-06T03:19:13;2.70;99.90
32334;DHT22;18810;53.040;8.850;2023-04-06T03:21:39;2.70;99.90
32334;DHT22;18810;53.040;8.850;2023-04-06T03:24:05;2.70;99.90
32334;DHT22;18810;53.040;8.850;2023-04-06T03:26:31;2.70;99.90
32334;DHT22;18810;53.040;8.850;2023-04-06T03:28:57;2.60;99.90
32334;DHT22;18810;53.040;8.850;2023-04-06T03:31:23;2.50;99.90
32334;DHT22;18810;53.040;8.850;2023-04-06T03:33:48;2.50;99.90
32334;DHT22;18810;53.040;8.850;2023-04-06T03:36:14;2.40;99.90
32334;DHT22;18810;53.040;8.850;2023-04-06T03:38:40;2.30;99.90
32334;DHT22;18810;53.040;8.850;2023-04-06T03:41:06;2.40;99.90
32334;DHT22;18810;53.040;8.850;2023-04-06T03:43:31;2.30;99.90
32334;DHT22;18810;53.040;8.850;2023-04-06T03:45:57;2.30;99.90
32334;DHT22;18810;53.040;8.850;2023-04-06T03:48:23;2.30;99.90
32334;DHT22;18810;53.040;8.850;2023-04-06T03:50:48;2.30;99.90
32334;DHT22;18810;53.040;8.850;2023-04-06T03:53:14;2.40;99.90
32334;DHT22;18810;53.040;8.850;2023-04-06T03:55:40;2.30;99.90
32334;DHT22;18810;53.040;8.850;2023-04-06T03:58:06;2.20;99.90
32334;DHT22;18810;53.040;8.850;2023-04-06T04:00:32;2.30;99.90
32334;DHT22;18810;53.040;8.850;2023-04-06T04:02:58;2.30;99.90
32334;DHT22;18810;53.040;8.850;2023-04-06T04:05:24;2.20;99.90
32334;DHT22;18810;53.040;8.850;2023-04-06T04:07:51;2.20;99.90
32334;DHT22;18810;53.040;8.850;2023-04-06T04:10:17;2.20;99.90
32334;DHT22;18810;53.040;8.850;2023-04-06T04:12:43;2.20;99.90
32334;DHT22;18810;53.040;8.850;2023-04-06T04:15:09;2.10;99.90
32334;DHT22;18810;53.040;8.850;2023-04-06T04:17:35;2.10;99.90
32334;DHT22;18810;53.040;8.850;2023-04-06T04:20:01;2.10;99.90
32334;DHT22;18810;53.040;8.850;2023-04-06T04:22:27;2.10;99.90
32334;DHT22;18810;53.040;8.850;2023-04-06T04:24:55;2.00;99.90
32334;DHT22;18810;53.040;8.850;2023-04-06T04:27:21;2.00;99.90
32334;DHT22;18810;53.040;8.850;2023-04-06T04:29:47;2.00;99.90
32334;DHT22;18810;53.040;8.850;2023-04-06T04:32:13;2.00;99.90
32334;DHT22;18810;53.040;8.850;2023-04-06T04:34:38;2.00;99.90
32334;DHT22;18810;53.040;8.850;2023-04-06T04:37:07;2.00;99.90
32334;DHT22;18810;53.040;8.850;2023-04-06T04:39:33;2.00;99.90
32334;DHT22;18810;53.040;8.850;2023-04-06T04:41:58;2.00;99.90
32334;DHT22;18810;53.040;8.850;2023-04-06T04:44:24;2.00;99.90
32334;DHT22;18810;53.040;8.850;2023-04-06T04:46:50;1.90;99.90
32334;DHT22;18810;53.040;8.850;2023-04-06T04:49:16;1.90;99.90
32334;DHT22;18810;53.040;8.850;2023-04-06T04:51:42;1.90;99.90
32334;DHT22;18810;53.040;8.850;2023-04-06T04:54:07;1.90;99.90
32334;DHT22;18810;53.040;8.850;2023-04-06T04:56:33;1.90;99.90
32334;DHT22;18810;53.040;8.850;2023-04-06T04:58:59;1.80;99.90
32334;DHT22;18810;53.040;8.850;2023-04-06T05:01:25;1.80;99.90
32334;DHT22;18810;53.040;8.850;2023-04-06T05:03:51;1.80;99.90
32334;DHT22;18810;53.040;8.850;2023-04-06T05:06:16;1.90;99.90
32334;DHT22;18810;53.040;8.850;2023-04-06T05:08:44;1.90;99.90
32334;DHT22;18810;53.040;8.850;2023-04-06T05:11:10;1.90;99.90
32334;DHT22;18810;53.040;8.850;2023-04-06T05:13:36;1.80;99.90
32334;DHT22;18810;53.040;8.850;2023-04-06T05:16:02;1.80;99.90
32334;DHT22;18810;53.040;8.850;2023-04-06T05:18:27;1.80;99.90
32334;DHT22;18810;53.040;8.850;2023-04-06T05:20:53;1.80;99.90
32334;DHT22;18810;53.040;8.850;2023-04-06T05:23:19;1.80;99.90
32334;DHT22;18810;53.040;8.850;2023-04-06T05:25:45;1.90;99.90
32334;DHT22;18810;53.040;8.850;2023-04-06T05:28:10;1.90;99.90
32334;DHT22;18810;53.040;8.850;2023-04-06T05:30:39;1.90;99.90
32334;DHT22;18810;53.040;8.850;2023-04-06T05:33:05;2.00;99.90
32334;DHT22;18810;53.040;8.850;2023-04-06T05:35:31;2.00;99.90
32334;DHT22;18810;53.040;8.850;2023-04-06T05:37:57;2.10;99.90
32334;DHT22;18810;53.040;8.850;2023-04-06T05:40:23;2.20;99.90
32334;DHT22;18810;53.040;8.850;2023-04-06T05:42:48;2.20;99.90
32334;DHT22;18810;53.040;8.850;2023-04-06T05:45:14;2.30;99.90
32334;DHT22;18810;53.040;8.850;2023-04-06T05:47:43;3.50;99.90
32334;DHT22;18810;53.040;8.850;2023-04-06T05:50:13;5.10;99.90
32334;DHT22;18810;53.040;8.850;2023-04-06T05:52:39;5.90;98.60
32334;DHT22;18810;53.040;8.850;2023-04-06T05:55:08;6.40;97.40
32334;DHT22;18810;53.040;8.850;2023-04-06T05:57:34;6.90;96.60
32334;DHT22;18810;53.040;8.850;2023-04-06T06:00:00;7.00;96.00
32334;DHT22;18810;53.040;8.850;2023-04-06T06:02:26;6.90;95.80
32334;DHT22;18810;53.040;8.850;2023-04-06T06:04:52;6.60;96.20
32334;DHT22;18810;53.040;8.850;2023-04-06T06:07:17;6.30;96.60
32334;DHT22;18810;53.040;8.850;2023-04-06T06:09:43;6.20;96.40
32334;DHT22;18810;53.040;8.850;2023-04-06T06:12:09;6.00;96.70
32334;DHT22;18810;53.040;8.850;2023-04-06T06:14:35;6.10;96.80
32334;DHT22;18810;53.040;8.850;2023-04-06T06:17:01;6.30;96.60
32334;DHT22;18810;53.040;8.850;2023-04-06T06:19:26;6.10;96.70
32334;DHT22;18810;53.040;8.850;2023-04-06T06:21:52;5.60;96.90
32334;DHT22;18810;53.040;8.850;2023-04-06T06:24:18;4.50;98.50
32334;DHT22;18810;53.040;8.850;2023-04-06T06:26:46;4.00;99.70
32334;DHT22;18810;53.040;8.850;2023-04-06T06:29:14;3.90;99.90
32334;DHT22;18810;53.040;8.850;2023-04-06T06:31:40;4.00;99.90
32334;DHT22;18810;53.040;8.850;2023-04-06T06:34:06;4.20;99.90
32334;DHT22;18810;53.040;8.850;2023-04-06T06:36:32;4.80;99.90
32334;DHT22;18810;53.040;8.850;2023-04-06T06:38:58;5.30;98.80
32334;DHT22;18810;53.040;8.850;2023-04-06T06:41:25;5.60;98.10
32334;DHT22;18810;53.040;8.850;2023-04-06T06:43:51;5.50;97.80
32334;DHT22;18810;53.040;8.850;2023-04-06T06:46:17;5.50;97.80
32334;DHT22;18810;53.040;8.850;2023-04-06T06:48:43;5.40;98.00
32334;DHT22;18810;53.040;8.850;2023-04-06T06:51:09;5.60;98.00
32334;DHT22;18810;53.040;8.850;2023-04-06T06:53:35;5.60;98.00
32334;DHT22;18810;53.040;8.850;2023-04-06T06:56:01;5.70;98.20
32334;DHT22;18810;53.040;8.850;2023-04-06T06:58:26;6.00;98.00
32334;DHT22;18810;53.040;8.850;2023-04-06T07:00:57;6.10;99.80
32334;DHT22;18810;53.040;8.850;2023-04-06T07:03:23;6.20;99.50
32334;DHT22;18810;53.040;8.850;2023-04-06T07:05:49;6.30;98.20
32334;DHT22;18810;53.040;8.850;2023-04-06T07:08:19;6.50;99.30
32334;DHT22;18810;53.040;8.850;2023-04-06T07:10:45;6.70;98.00
32334;DHT22;18810;53.040;8.850;2023-04-06T07:13:11;6.60;97.60
32334;DHT22;18810;53.040;8.850;2023-04-06T07:15:37;6.40;98.00
32334;DHT22;18810;53.040;8.850;2023-04-06T07:18:03;6.80;99.00
32334;DHT22;18810;53.040;8.850;2023-04-06T07:20:29;6.80;97.90
32334;DHT22;18810;53.040;8.850;2023-04-06T07:22:55;7.10;97.60
32334;DHT22;18810;53.040;8.850;2023-04-06T07:25:20;7.30;97.20
32334;DHT22;18810;53.040;8.850;2023-04-06T07:27:46;7.20;96.90
32334;DHT22;18810;53.040;8.850;2023-04-06T07:30:13;7.00;96.50
32334;DHT22;18810;53.040;8.850;2023-04-06T07:32:39;6.70;97.00
32334;DHT22;18810;53.040;8.850;2023-04-06T07:35:05;6.60;97.10
32334;DHT22;18810;53.040;8.850;2023-04-06T07:37:31;6.70;97.30
32334;DHT22;18810;53.040;8.850;2023-04-06T07:39:57;6.90;97.00
32334;DHT22;18810;53.040;8.850;2023-04-06T07:42:22;6.80;96.40
32334;DHT22;18810;53.040;8.850;2023-04-06T07:44:48;6.90;96.80
32334;DHT22;18810;53.040;8.850;2023-04-06T07:47:14;7.00;96.80
32334;DHT22;18810;53.040;8.850;2023-04-06T07:49:39;6.90;96.60
32334;DHT22;18810;53.040;8.850;2023-04-06T07:52:05;7.10;96.60
32334;DHT22;18810;53.040;8.850;2023-04-06T07:54:31;7.10;96.80
32334;DHT22;18810;53.040;8.850;2023-04-06T07:56:56;7.30;96.80
32334;DHT22;18810;53.040;8.850;2023-04-06T07:59:22;7.90;96.60
32334;DHT22;18810;53.040;8.850;2023-04-06T08:01:48;7.80;95.50
32334;DHT22;18810;53.040;8.850;2023-04-06T08:04:14;7.60;95.60
32334;DHT22;18810;53.040;8.850;2023-04-06T08:06:40;7.40;95.80
32334;DHT22;18810;53.040;8.850;2023-04-06T08:09:06;7.60;95.70
32334;DHT22;18810;53.040;8.850;2023-04-06T08:11:32;7.80;95.40
32334;DHT22;18810;53.040;8.850;2023-04-06T08:13:57;8.00;95.40
32334;DHT22;18810;53.040;8.850;2023-04-06T08:16:24;8.00;95.40
32334;DHT22;18810;53.040;8.850;2023-04-06T08:18:50;7.80;95.30
32334;DHT22;18810;53.040;8.850;2023-04-06T08:21:16;8.30;97.50
32334;DHT22;18810;53.040;8.850;2023-04-06T08:23:41;8.70;96.20
32334;DHT22;18810;53.040;8.850;2023-04-06T08:26:07;8.80;95.90
32334;DHT22;18810;53.040;8.850;2023-04-06T08:28:33;9.30;95.80
32334;DHT22;18810;53.040;8.850;2023-04-06T08:31:03;9.60;95.50
32334;DHT22;18810;53.040;8.850;2023-04-06T08:33:29;9.50;95.00
32334;DHT22;18810;53.040;8.850;2023-04-06T08:35:55;9.60;95.10
32334;DHT22;18810;53.040;8.850;2023-04-06T08:38:21;9.50;95.10
32334;DHT22;18810;53.040;8.850;2023-04-06T08:40:47;9.40;93.90
32334;DHT22;18810;53.040;8.850;2023-04-06T08:43:17;9.60;95.00
32334;DHT22;18810;53.040;8.850;2023-04-06T08:45:45;10.30;94.60
32334;DHT22;18810;53.040;8.850;2023-04-06T08:48:12;10.30;94.10
32334;DHT22;18810;53.040;8.850;2023-04-06T08:50:38;10.20;93.30
32334;DHT22;18810;53.040;8.850;2023-04-06T08:53:06;9.90;93.70
32334;DHT22;18810;53.040;8.850;2023-04-06T08:55:33;9.60;92.20
32334;DHT22;18810;53.040;8.850;2023-04-06T08:57:59;9.50;92.70
32334;DHT22;18810;53.040;8.850;2023-04-06T09:00:26;9.50;92.60
32334;DHT22;18810;53.040;8.850;2023-04-06T09:02:56;9.90;93.10
32334;DHT22;18810;53.040;8.850;2023-04-06T09:05:24;10.00;92.40
32334;DHT22;18810;53.040;8.850;2023-04-06T09:07:51;10.40;91.90
32334;DHT22;18810;53.040;8.850;2023-04-06T09:10:16;11.00;91.40
32334;DHT22;18810;53.040;8.850;2023-04-06T09:12:43;11.30;91.20
32334;DHT22;18810;53.040;8.850;2023-04-06T09:15:19;11.30;90.20
32334;DHT22;18810;53.040;8.850;2023-04-06T09:17:45;11.00;90.20
32334;DHT22;18810;53.040;8.850;2023-04-06T09:20:12;11.50;90.60
32334;DHT22;18810;53.040;8.850;2023-04-06T09:22:41;11.90;90.10
32334;DHT22;18810;53.040;8.850;2023-04-06T09:25:17;12.50;88.70
32334;DHT22;18810;53.040;8.850;2023-04-06T09:27:44;11.80;89.00
32334;DHT22;18810;53.040;8.850;2023-04-06T09:30:11;11.80;88.50
32334;DHT22;18810;53.040;8.850;2023-04-06T09:32:56;11.80;88.60
32334;DHT22;18810;53.040;8.850;2023-04-06T09:35:22;12.20;88.30
32334;DHT22;18810;53.040;8.850;2023-04-06T09:37:50;12.00;88.70
32334;DHT22;18810;53.040;8.850;2023-04-06T09:40:17;12.50;88.00
32334;DHT22;18810;53.040;8.850;2023-04-06T09:42:48;12.70;86.90
32334;DHT22;18810;53.040;8.850;2023-04-06T09:45:16;13.10;85.00
32334;DHT22;18810;53.040;8.850;2023-04-06T09:47:44;12.60;84.20
32334;DHT22;18810;53.040;8.850;2023-04-06T09:50:11;12.90;83.30
32334;DHT22;18810;53.040;8.850;2023-04-06T09:52:46;12.90;81.90
32334;DHT22;18810;53.040;8.850;2023-04-06T09:55:28;13.20;82.00
32334;DHT22;18810;53.040;8.850;2023-04-06T09:58:05;13.30;81.70
32334;DHT22;18810;53.040;8.850;2023-04-06T10:00:34;13.20;81.20
32334;DHT22;18810;53.040;8.850;2023-04-06T10:03:14;13.60;81.60
32334;DHT22;18810;53.040;8.850;2023-04-06T10:05:47;13.60;80.00
32334;DHT22;18810;53.040;8.850;2023-04-06T10:08:16;13.60;81.60
32334;DHT22;18810;53.040;8.850;2023-04-06T10:10:44;13.60;81.00
32334;DHT22;18810;53.040;8.850;2023-04-06T10:13:11;13.70;81.30
32334;DHT22;18810;53.040;8.850;2023-04-06T10:15:38;13.90;79.90
32334;DHT22;18810;53.040;8.850;2023-04-06T10:18:05;14.10;80.00
32334;DHT22;18810;53.040;8.850;2023-04-06T10:20:53;14.20;79.80
32334;DHT22;18810;53.040;8.850;2023-04-06T10:23:33;14.10;78.80
32334;DHT22;18810;53.040;8.850;2023-04-06T10:26:01;14.40;80.10
32334;DHT22;18810;53.040;8.850;2023-04-06T10:28:32;14.50;77.60
32334;DHT22;18810;53.040;8.850;2023-04-06T10:31:00;14.20;78.50
32334;DHT22;18810;53.040;8.850;2023-04-06T10:33:27;14.70;77.50
32334;DHT22;18810;53.040;8.850;2023-04-06T10:35:53;14.50;77.60
32334;DHT22;18810;53.040;8.850;2023-04-06T10:38:19;14.70;78.90
32334;DHT22;18810;53.040;8.850;2023-04-06T10:40:49;14.80;78.80
32334;DHT22;18810;53.040;8.850;2023-04-06T10:43:20;15.30;77.50
32334;DHT22;18810;53.040;8.850;2023-04-06T10:45:55;15.10;75.90
32334;DHT22;18810;53.040;8.850;2023-04-06T10:48:21;15.60;77.30
32334;DHT22;18810;53.040;8.850;2023-04-06T10:50:52;15.70;77.00
32334;DHT22;18810;53.040;8.850;2023-04-06T10:55:53;16.10;73.40
32334;DHT22;18810;53.040;8.850;2023-04-06T10:58:19;15.80;74.50
32334;DHT22;18810;53.040;8.850;2023-04-06T11:00:47;15.80;74.40
32334;DHT22;18810;53.040;8.850;2023-04-06T11:03:13;16.30;73.60
32334;DHT22;18810;53.040;8.850;2023-04-06T11:05:47;16.40;71.00
32334;DHT22;18810;53.040;8.850;2023-04-06T11:10:49;16.80;70.80
32334;DHT22;18810;53.040;8.850;2023-04-06T11:13:15;16.50;70.20
32334;DHT22;18810;53.040;8.850;2023-04-06T11:15:40;16.80;71.80
32334;DHT22;18810;53.040;8.850;2023-04-06T11:18:06;17.60;66.60
32334;DHT22;18810;53.040;8.850;2023-04-06T11:20:35;17.40;66.90
32334;DHT22;18810;53.040;8.850;2023-04-06T11:23:01;17.40;66.00
32334;DHT22;18810;53.040;8.850;2023-04-06T11:25:27;17.00;66.40
32334;DHT22;18810;53.040;8.850;2023-04-06T11:27:53;16.90;68.20
32334;DHT22;18810;53.040;8.850;2023-04-06T11:30:19;17.50;67.10
32334;DHT22;18810;53.040;8.850;2023-04-06T11:32:46;18.10;64.30
32334;DHT22;18810;53.040;8.850;2023-04-06T11:35:22;18.40;64.40
32334;DHT22;18810;53.040;8.850;2023-04-06T11:37:49;19.00;62.20
32334;DHT22;18810;53.040;8.850;2023-04-06T11:40:15;18.60;59.80
32334;DHT22;18810;53.040;8.850;2023-04-06T11:42:52;17.50;60.70
32334;DHT22;18810;53.040;8.850;2023-04-06T11:45:19;17.70;61.30
32334;DHT22;18810;53.040;8.850;2023-04-06T11:47:44;17.70;61.00
32334;DHT22;18810;53.040;8.850;2023-04-06T11:50:12;17.60;59.30
32334;DHT22;18810;53.040;8.850;2023-04-06T11:52:40;17.50;59.40
32334;DHT22;18810;53.040;8.850;2023-04-06T11:55:17;17.40;59.60
32334;DHT22;18810;53.040;8.850;2023-04-06T11:57:43;17.60;59.20
32334;DHT22;18810;53.040;8.850;2023-04-06T12:00:11;17.30;59.20
32334;DHT22;18810;53.040;8.850;2023-04-06T12:02:37;17.80;59.20
32334;DHT22;18810;53.040;8.850;2023-04-06T12:05:05;18.30;58.80
32334;DHT22;18810;53.040;8.850;2023-04-06T12:07:32;18.30;57.60
32334;DHT22;18810;53.040;8.850;2023-04-06T12:10:00;18.20;57.50
32334;DHT22;18810;53.040;8.850;2023-04-06T12:12:26;18.10;57.00
32334;DHT22;18810;53.040;8.850;2023-04-06T12:14:52;18.40;56.40
32334;DHT22;18810;53.040;8.850;2023-04-06T12:17:18;18.30;56.60
32334;DHT22;18810;53.040;8.850;2023-04-06T12:19:44;18.50;55.50
32334;DHT22;18810;53.040;8.850;2023-04-06T12:22:10;18.50;55.40
32334;DHT22;18810;53.040;8.850;2023-04-06T12:24:36;18.40;56.40
32334;DHT22;18810;53.040;8.850;2023-04-06T12:27:02;18.30;56.10
32334;DHT22;18810;53.040;8.850;2023-04-06T12:29:28;18.00;56.40
32334;DHT22;18810;53.040;8.850;2023-04-06T12:31:54;18.40;56.40
32334;DHT22;18810;53.040;8.850;2023-04-06T12:34:20;18.60;56.00
32334;DHT22;18810;53.040;8.850;2023-04-06T12:36:45;18.20;55.90
32334;DHT22;18810;53.040;8.850;2023-04-06T12:39:11;18.60;55.50
32334;DHT22;18810;53.040;8.850;2023-04-06T12:41:37;18.40;54.40
32334;DHT22;18810;53.040;8.850;2023-04-06T12:44:06;18.40;55.20
32334;DHT22;18810;53.040;8.850;2023-04-06T12:46:31;18.80;55.50
32334;DHT22;18810;53.040;8.850;2023-04-06T12:48:58;19.30;54.80
32334;DHT22;18810;53.040;8.850;2023-04-06T12:51:27;19.00;55.00
32334;DHT22;18810;53.040;8.850;2023-04-06T12:53:53;18.80;53.50
32334;DHT22;18810;53.040;8.850;2023-04-06T12:56:19;18.70;53.50
32334;DHT22;18810;53.040;8.850;2023-04-06T12:58:46;19.00;53.90
32334;DHT22;18810;53.040;8.850;2023-04-06T13:01:12;19.70;54.60
32334;DHT22;18810;53.040;8.850;2023-04-06T13:03:39;20.10;52.30
32334;DHT22;18810;53.040;8.850;2023-04-06T13:06:05;19.60;52.10
32334;DHT22;18810;53.040;8.850;2023-04-06T13:08:31;18.70;53.00
32334;DHT22;18810;53.040;8.850;2023-04-06T13:10:57;18.70;53.20
32334;DHT22;18810;53.040;8.850;2023-04-06T13:13:24;18.90;51.80
32334;DHT22;18810;53.040;8.850;2023-04-06T13:15:51;18.90;52.40
32334;DHT22;18810;53.040;8.850;2023-04-06T13:18:17;19.00;52.10
32334;DHT22;18810;53.040;8.850;2023-04-06T13:20:43;19.00;52.40
32334;DHT22;18810;53.040;8.850;2023-04-06T13:23:09;19.00;53.10
32334;DHT22;18810;53.040;8.850;2023-04-06T13:25:35;19.10;52.50
32334;DHT22;18810;53.040;8.850;2023-04-06T13:28:01;19.60;52.10
32334;DHT22;18810;53.040;8.850;2023-04-06T13:30:26;20.60;51.10
32334;DHT22;18810;53.040;8.850;2023-04-06T13:32:52;20.60;50.40
32334;DHT22;18810;53.040;8.850;2023-04-06T13:35:18;20.10;48.10
32334;DHT22;18810;53.040;8.850;2023-04-06T13:37:44;20.10;49.20
32334;DHT22;18810;53.040;8.850;2023-04-06T13:40:11;19.50;49.50
32334;DHT22;18810;53.040;8.850;2023-04-06T13:42:37;19.70;49.70
32334;DHT22;18810;53.040;8.850;2023-04-06T13:45:05;20.00;50.00
32334;DHT22;18810;53.040;8.850;2023-04-06T13:47:31;19.60;50.60
32334;DHT22;18810;53.040;8.850;2023-04-06T13:49:57;19.60;50.80
32334;DHT22;18810;53.040;8.850;2023-04-06T13:52:23;19.60;51.60
32334;DHT22;18810;53.040;8.850;2023-04-06T13:54:49;20.10;51.20
32334;DHT22;18810;53.040;8.850;2023-04-06T13:57:15;20.60;49.80
32334;DHT22;18810;53.040;8.850;2023-04-06T13:59:41;20.40;50.90
32334;DHT22;18810;53.040;8.850;2023-04-06T14:02:09;19.80;50.80
32334;DHT22;18810;53.040;8.850;2023-04-06T14:04:35;20.00;50.50
32334;DHT22;18810;53.040;8.850;2023-04-06T14:07:02;20.60;49.20
32334;DHT22;18810;53.040;8.850;2023-04-06T14:09:29;19.90;49.40
32334;DHT22;18810;53.040;8.850;2023-04-06T14:11:55;20.10;49.90
32334;DHT22;18810;53.040;8.850;2023-04-06T14:14:22;20.20;50.10
32334;DHT22;18810;53.040;8.850;2023-04-06T14:16:48;20.30;50.30
32334;DHT22;18810;53.040;8.850;2023-04-06T14:19:15;20.20;49.70
32334;DHT22;18810;53.040;8.850;2023-04-06T14:21:46;20.90;49.10
32334;DHT22;18810;53.040;8.850;2023-04-06T14:24:12;20.60;49.00
32334;DHT22;18810;53.040;8.850;2023-04-06T14:26:39;20.20;48.80
32334;DHT22;18810;53.040;8.850;2023-04-06T14:29:07;19.90;48.60
32334;DHT22;18810;53.040;8.850;2023-04-06T14:31:33;20.50;48.80
32334;DHT22;18810;53.040;8.850;2023-04-06T14:34:01;20.70;48.40
32334;DHT22;18810;53.040;8.850;2023-04-06T14:36:27;20.60;48.00
32334;DHT22;18810;53.040;8.850;2023-04-06T14:38:57;20.70;48.10
32334;DHT22;18810;53.040;8.850;2023-04-06T14:41:24;20.90;46.50
32334;DHT22;18810;53.040;8.850;2023-04-06T14:43:50;21.00;46.60
32334;DHT22;18810;53.040;8.850;2023-04-06T14:46:18;20.70;47.10
32334;DHT22;18810;53.040;8.850;2023-04-06T14:48:44;20.40;48.60
32334;DHT22;18810;53.040;8.850;2023-04-06T14:51:10;19.70;48.40
32334;DHT22;18810;53.040;8.850;2023-04-06T14:53:39;19.50;49.70
32334;DHT22;18810;53.040;8.850;2023-04-06T14:56:06;19.00;50.20
32334;DHT22;18810;53.040;8.850;2023-04-06T14:58:31;19.10;50.30
32334;DHT22;18810;53.040;8.850;2023-04-06T15:00:58;19.50;49.90
32334;DHT22;18810;53.040;8.850;2023-04-06T15:03:25;20.00;48.70
32334;DHT22;18810;53.040;8.850;2023-04-06T15:05:55;19.80;49.10
32334;DHT22;18810;53.040;8.850;2023-04-06T15:08:22;19.40;49.70
32334;DHT22;18810;53.040;8.850;2023-04-06T15:10:51;18.90;49.90
32334;DHT22;18810;53.040;8.850;2023-04-06T15:13:17;18.60;50.70
32334;DHT22;18810;53.040;8.850;2023-04-06T15:15:44;18.60;51.00
32334;DHT22;18810;53.040;8.850;2023-04-06T15:18:10;18.70;51.30
32334;DHT22;18810;53.040;8.850;2023-04-06T15:20:36;18.60;51.60
32334;DHT22;18810;53.040;8.850;2023-04-06T15:23:03;18.50;52.30
32334;DHT22;18810;53.040;8.850;2023-04-06T15:25:29;18.30;53.50
32334;DHT22;18810;53.040;8.850;2023-04-06T15:27:56;18.20;54.30
32334;DHT22;18810;53.040;8.850;2023-04-06T15:30:22;17.90;54.00
32334;DHT22;18810;53.040;8.850;2023-04-06T15:32:53;17.80;54.50
32334;DHT22;18810;53.040;8.850;2023-04-06T15:35:20;18.00;53.90
32334;DHT22;18810;53.040;8.850;2023-04-06T15:37:46;17.80;54.20
32334;DHT22;18810;53.040;8.850;2023-04-06T15:40:12;17.80;53.80
32334;DHT22;18810;53.040;8.850;2023-04-06T15:42:39;17.80;54.50